Time;durP1;ratioP1;P1;durP2;ratioP2;P2;SDS_P1;SDS_P2;PMS_P1;PMS_P2;Temp;Humidity;BMP_temperature;BMP_pressure;BME280_temperature;BME280_humidity;BME280_pressure;Samples;Min_cycle;Max_cycle;Signal;HPM_P1;HPM_P2
2022/01/19 14:16:32;;;;;;;13.60;9.25;;;8.90;99.90;;;7.80;95.70;102558.53;4249245;27;20112;-68
2022/01/19 14:18:33;;;;;;;13.40;7.50;;;8.90;99.90;;;7.76;95.46;102565.75;4080189;28;75710;-69
2022/01/19 14:20:34;;;;;;;12.43;7.93;;;8.90;99.90;;;7.90;94.10;102562.31;4169180;28;20053;-69
2022/01/19 14:22:36;;;;;;;12.45;7.28;;;8.90;99.90;;;7.93;94.09;102562.13;4149788;28;20044;-69
2022/01/19 14:24:46;;;;;;;11.25;6.38;;;8.90;99.90;;;8.02;94.43;102560.72;4100574;28;20102;-69
2022/01/19 14:26:59;;;;;;;9.75;6.00;;;9.00;99.90;;;8.10;94.09;102553.19;4184451;28;20438;-69
2022/01/19 14:29:14;;;;;;;7.88;5.72;;;9.00;99.90;;;7.93;95.53;102548.13;4197337;28;20029;-69
2022/01/19 14:31:15;;;;;;;10.35;6.78;;;9.00;99.90;;;7.88;94.86;102555.47;4180707;28;20036;-69
2022/01/19 14:33:16;;;;;;;14.80;6.57;;;9.00;99.90;;;7.79;97.30;102560.31;4180782;28;20033;-69
2022/01/19 14:35:42;;;;;;;9.63;6.57;;;8.90;99.90;;;7.71;95.54;102546.81;4180723;28;20033;-69
2022/01/19 14:38:05;;;;;;;10.00;6.40;;;8.80;99.90;;;7.59;96.68;102552.81;4180218;28;20119;-69
2022/01/19 14:40:10;;;;;;;12.25;6.63;;;8.80;99.90;;;7.60;97.65;102546.63;4197154;28;20029;-69
2022/01/19 14:42:12;;;;;;;10.15;6.72;;;8.70;99.90;;;7.67;97.86;102547.97;4178058;28;20044;-69
2022/01/19 14:44:22;;;;;;;12.90;7.13;;;8.70;99.90;;;7.82;97.45;102545.34;4186183;28;20047;-69
2022/01/19 14:47:06;;;;;;;14.57;8.98;;;8.70;99.90;;;7.82;98.14;102528.63;4178579;28;20123;-69
2022/01/19 14:49:07;;;;;;;15.43;9.10;;;8.70;99.90;;;7.82;98.42;102535.69;4185670;28;20056;-68
2022/01/19 14:51:31;;;;;;;14.25;10.30;;;8.70;99.90;;;7.82;98.57;102538.31;4185678;28;20053;-68
2022/01/19 14:53:33;;;;;;;16.83;9.75;;;8.70;99.90;;;7.87;100.00;102530.13;4185523;28;20032;-67
2022/01/19 14:55:39;;;;;;;16.05;10.30;;;8.70;99.90;;;7.75;100.00;102542.22;4191356;28;20041;-67
2022/01/19 14:57:40;;;;;;;13.48;8.55;;;8.70;99.90;;;7.73;100.00;102537.09;4177069;28;20038;-67
2022/01/19 14:59:40;;;;;;;12.20;8.45;;;8.70;99.90;;;7.56;100.00;102534.63;4183972;28;20033;-67
2022/01/19 15:01:49;;;;;;;14.35;8.40;;;8.70;99.90;;;7.65;100.00;102541.94;4183389;28;20105;-67
2022/01/19 15:03:50;;;;;;;13.90;9.20;;;8.60;99.90;;;7.74;100.00;102540.53;4184240;28;20498;-67
2022/01/19 15:05:51;;;;;;;13.85;9.20;;;8.60;99.90;;;7.80;100.00;102548.88;4184085;28;20036;-67
2022/01/19 15:07:52;;;;;;;14.52;9.00;;;8.60;99.90;;;7.82;100.00;102552.25;4185688;28;20060;-67
2022/01/19 15:09:53;;;;;;;21.52;9.52;;;8.60;99.90;;;7.71;100.00;102536.31;4167585;28;20025;-67
2022/01/19 15:11:54;;;;;;;9.82;7.28;;;8.50;99.90;;;7.69;100.00;102537.34;4184075;28;20034;-67
2022/01/19 15:13:55;;;;;;;13.73;7.95;;;8.50;99.90;;;7.65;100.00;102541.94;4184494;28;20032;-67
2022/01/19 15:15:56;;;;;;;14.30;9.93;;;8.50;99.90;;;7.56;100.00;102531.16;4184086;28;20598;-67
2022/01/19 15:17:59;;;;;;;15.73;9.18;;;8.40;99.90;;;7.51;100.00;102544.56;4185697;28;20104;-67
2022/01/19 15:20:00;;;;;;;16.55;11.18;;;8.40;99.90;;;7.52;100.00;102535.75;4185697;28;20047;-67
2022/01/19 15:22:01;;;;;;;14.95;8.50;;;8.30;99.90;;;7.34;100.00;102542.13;4185550;28;20025;-67
2022/01/19 15:24:04;;;;;;;16.85;10.18;;;8.30;99.90;;;7.29;100.00;102544.16;4184513;28;20078;-67
2022/01/19 15:26:06;;;;;;;14.45;9.10;;;8.20;99.90;;;7.34;100.00;102562.25;4180992;28;20037;-68
2022/01/19 15:28:08;;;;;;;19.35;11.15;;;8.20;99.90;;;7.23;100.00;102570.75;4173927;28;20036;-68
2022/01/19 15:30:10;;;;;;;18.30;12.05;;;8.10;99.90;;;6.80;100.00;102551.41;4173682;28;20029;-68
2022/01/19 15:32:11;;;;;;;16.08;9.98;;;8.00;99.90;;;6.86;100.00;102558.09;4175196;28;20021;-67
2022/01/19 15:34:12;;;;;;;15.63;10.30;;;7.90;99.90;;;6.88;100.00;102553.59;4173587;28;20032;-67
2022/01/19 15:36:13;;;;;;;14.73;9.35;;;7.80;99.90;;;6.97;100.00;102551.28;4173658;28;20025;-68
2022/01/19 15:38:15;;;;;;;12.73;8.25;;;7.80;99.90;;;6.96;100.00;102541.72;4175296;28;20032;-67
2022/01/19 15:40:17;;;;;;;16.50;12.50;;;7.80;99.90;;;7.02;100.00;102543.97;4173648;28;20493;-67
2022/01/19 15:42:18;;;;;;;13.88;9.63;;;7.80;99.90;;;7.13;100.00;102536.34;4159103;28;20037;-68
2022/01/19 15:44:19;;;;;;;13.60;9.18;;;7.80;99.90;;;7.09;100.00;102533.97;4173394;28;20047;-67
2022/01/19 15:46:20;;;;;;;14.68;7.75;;;7.80;99.90;;;7.04;100.00;102530.78;4173067;28;20554;-67
2022/01/19 15:48:21;;;;;;;12.90;8.63;;;7.80;99.90;;;7.09;100.00;102537.47;4156368;28;20014;-67
2022/01/19 15:50:22;;;;;;;13.32;9.13;;;7.80;99.90;;;6.72;100.00;102523.94;4172775;28;20479;-66
2022/01/19 15:52:25;;;;;;;14.25;9.13;;;7.70;99.90;;;6.77;100.00;102535.00;4173361;28;20033;-66
2022/01/19 15:54:26;;;;;;;14.65;9.38;;;7.70;99.90;;;6.93;100.00;102538.44;4205828;28;20028;-67
2022/01/19 15:56:27;;;;;;;15.20;10.07;;;7.60;99.90;;;6.99;100.00;102533.66;4174553;28;20024;-67
2022/01/19 15:58:28;;;;;;;13.82;8.77;;;7.60;99.90;;;6.90;100.00;102531.56;4173598;28;20524;-66
2022/01/19 16:00:29;;;;;;;13.07;8.30;;;7.60;99.90;;;6.88;100.00;102511.63;4156314;28;20030;-66
2022/01/19 16:02:30;;;;;;;15.07;9.35;;;7.60;99.90;;;6.93;100.00;102520.09;4172972;28;20144;-67
2022/01/19 16:04:31;;;;;;;15.52;9.07;;;7.60;99.90;;;6.86;100.00;102516.97;4173553;28;20037;-67
2022/01/19 16:06:32;;;;;;;14.30;7.93;;;7.60;99.90;;;6.94;100.00;102511.25;4174595;28;20099;-67
2022/01/19 16:08:34;;;;;;;15.40;9.07;;;7.60;99.90;;;7.00;100.00;102524.03;4172619;28;20033;-67
2022/01/19 16:10:36;;;;;;;18.17;9.65;;;7.60;99.90;;;7.07;100.00;102522.75;4172742;28;20119;-67
2022/01/19 16:12:37;;;;;;;19.90;11.70;;;7.70;99.90;;;7.00;100.00;102521.41;4174278;28;20428;-66
2022/01/19 16:14:38;;;;;;;18.17;11.90;;;7.60;99.90;;;6.99;100.00;102535.47;4173629;28;20528;-66
2022/01/19 16:16:39;;;;;;;23.45;14.02;;;7.60;99.90;;;7.08;100.00;102533.13;4172048;28;20037;-67
2022/01/19 16:18:40;;;;;;;18.83;11.65;;;7.70;99.90;;;7.15;100.00;102544.97;4169831;28;20037;-67
2022/01/19 16:20:41;;;;;;;19.15;13.40;;;7.70;99.90;;;7.02;100.00;102533.50;4172092;28;20591;-66
2022/01/19 16:27:22;;;;;;;22.45;14.07;;;7.70;99.90;;;7.02;100.00;102527.41;4172424;28;20063;-66
2022/01/19 16:29:24;;;;;;;23.10;15.63;;;7.70;99.90;;;7.16;100.00;102533.56;4176102;28;20060;-67
2022/01/19 16:31:25;;;;;;;19.20;13.65;;;7.70;99.90;;;7.09;100.00;102539.22;4166515;28;20026;-66
2022/01/19 16:33:26;;;;;;;20.35;12.82;;;7.70;99.90;;;7.00;100.00;102539.78;4181647;28;20099;-67
2022/01/19 16:35:27;;;;;;;17.63;11.48;;;7.70;99.90;;;6.99;100.00;102538.09;4184019;28;20036;-66
2022/01/19 16:37:28;;;;;;;21.00;13.68;;;7.60;99.90;;;6.92;100.00;102534.97;4184053;28;20455;-67
2022/01/19 16:39:29;;;;;;;18.70;11.45;;;7.60;99.90;;;6.85;100.00;102522.28;4165761;28;20080;-66
2022/01/19 16:41:32;;;;;;;18.25;11.05;;;7.60;99.90;;;6.94;100.00;102527.00;4184214;28;20054;-66
2022/01/19 16:43:33;;;;;;;19.05;11.98;;;7.50;99.90;;;6.82;100.00;102535.56;4182755;28;20025;-67
2022/01/19 16:45:34;;;;;;;15.68;10.02;;;7.50;99.90;;;6.76;100.00;102530.69;4166231;28;20033;-67
2022/01/19 16:47:42;;;;;;;17.85;10.85;;;7.50;99.90;;;6.65;100.00;102526.06;4182659;28;20060;-66
2022/01/19 16:49:47;;;;;;;12.68;9.30;;;7.50;99.90;;;6.59;100.00;102532.50;4176472;28;20033;-67
2022/01/19 16:51:49;;;;;;;17.17;10.77;;;7.40;99.90;;;6.55;100.00;102524.88;4180510;28;20033;-66
2022/01/19 16:53:50;;;;;;;17.38;9.32;;;7.40;99.90;;;6.52;100.00;102519.81;4207486;28;20848;-66
2022/01/19 16:55:54;;;;;;;15.52;9.88;;;7.30;99.90;;;6.60;100.00;102533.34;4183808;28;20040;-66
2022/01/19 16:57:55;;;;;;;13.80;9.18;;;7.30;99.90;;;6.51;100.00;102536.50;4182662;28;20031;-67
2022/01/19 16:59:57;;;;;;;18.50;12.98;;;7.30;99.90;;;6.64;100.00;102551.44;4183683;28;20480;-66
2022/01/19 17:01:58;;;;;;;15.13;9.63;;;7.30;99.90;;;6.61;100.00;102556.84;4183932;28;20033;-67
2022/01/19 17:03:59;;;;;;;22.17;11.63;;;7.30;99.90;;;6.65;100.00;102553.13;4181947;28;20033;-67
2022/01/19 17:06:06;;;;;;;20.20;10.20;;;7.30;99.90;;;6.65;100.00;102544.44;4181299;28;20025;-67
2022/01/19 17:08:07;;;;;;;18.65;12.02;;;7.30;99.90;;;6.49;100.00;102551.44;4183779;28;20037;-67
2022/01/19 17:10:10;;;;;;;21.67;13.45;;;7.30;99.90;;;6.51;100.00;102560.91;4182412;28;20404;-66
2022/01/19 17:12:18;;;;;;;23.55;12.95;;;7.30;99.90;;;6.68;100.00;102547.72;4182580;28;20126;-67
2022/01/19 17:14:23;;;;;;;24.33;15.80;;;7.30;99.90;;;6.80;100.00;102561.06;4183242;28;20065;-67
2022/01/19 17:16:41;;;;;;;15.43;10.57;;;7.30;99.90;;;6.63;100.00;102551.53;4182359;28;20029;-66
2022/01/19 17:18:44;;;;;;;18.13;11.88;;;7.30;99.90;;;6.52;100.00;102554.75;4167530;28;20779;-66
2022/01/19 17:20:44;;;;;;;21.65;11.93;;;7.30;99.90;;;6.51;100.00;102555.66;4189679;28;20074;-67
2022/01/19 17:22:47;;;;;;;18.17;9.98;;;7.30;99.90;;;6.48;100.00;102558.47;4182526;28;20052;-66
2022/01/19 17:24:48;;;;;;;19.48;11.35;;;7.30;99.90;;;6.54;100.00;102557.31;4183299;28;20029;-66
2022/01/19 17:26:49;;;;;;;15.63;9.85;;;7.30;99.90;;;6.52;100.00;102553.91;4179680;28;20044;-66
2022/01/19 17:28:50;;;;;;;17.92;10.77;;;7.30;99.90;;;6.59;100.00;102571.84;4182273;28;20524;-66
2022/01/19 17:30:52;;;;;;;19.33;11.13;;;7.30;99.90;;;6.64;100.00;102568.94;4182206;28;20126;-66
2022/01/19 17:32:53;;;;;;;19.65;11.98;;;7.30;99.90;;;6.55;100.00;102572.94;4198557;28;20036;-67
2022/01/19 17:34:56;;;;;;;17.50;11.25;;;7.30;99.90;;;6.67;100.00;102574.00;4182011;28;20028;-66
2022/01/19 17:36:58;;;;;;;16.38;10.50;;;7.30;99.90;;;6.61;100.00;102564.72;4183181;28;20033;-67
2022/01/19 17:38:59;;;;;;;20.25;11.75;;;7.30;99.90;;;6.62;100.00;102584.78;4165418;28;20032;-67
2022/01/19 17:41:01;;;;;;;18.65;10.80;;;7.30;99.90;;;6.44;100.00;102585.78;4181788;28;20037;-67
2022/01/19 17:43:02;;;;;;;21.27;10.25;;;7.30;99.90;;;6.50;100.00;102593.31;4209069;28;20060;-65
2022/01/19 17:45:11;;;;;;;20.02;13.32;;;7.20;99.90;;;6.61;100.00;102606.69;4198402;28;20527;-67
2022/01/19 17:53:33;;;;;;;17.88;9.10;;;7.30;99.90;;;6.61;100.00;102603.19;4183370;28;20133;-66
2022/01/19 17:55:34;;;;;;;17.45;10.95;;;7.30;99.90;;;6.63;100.00;102596.94;4181621;28;20528;-66
2022/01/19 17:57:35;;;;;;;20.20;9.43;;;7.30;99.90;;;6.61;100.00;102598.81;4183194;28;20116;-66
2022/01/19 17:59:36;;;;;;;21.35;12.73;;;7.30;99.90;;;6.60;100.00;102610.22;4182909;28;20087;-67
2022/01/19 18:01:37;;;;;;;15.93;10.00;;;7.30;99.90;;;6.55;100.00;102617.50;4181492;28;20029;-67
2022/01/19 18:03:38;;;;;;;17.80;9.50;;;7.30;99.90;;;6.50;100.00;102622.16;4197993;28;20589;-66
2022/01/19 18:05:39;;;;;;;18.98;10.00;;;7.30;99.90;;;6.51;100.00;102612.53;4164936;28;20034;-66
2022/01/19 18:07:40;;;;;;;17.10;10.40;;;7.30;99.90;;;6.59;100.00;102610.31;4183059;28;20036;-67
2022/01/19 18:09:41;;;;;;;17.05;10.55;;;7.30;99.90;;;6.67;100.00;102611.59;4181492;28;20045;-67
2022/01/19 18:11:42;;;;;;;23.52;13.23;;;7.30;99.90;;;6.68;100.00;102594.94;4182905;28;20150;-66
2022/01/19 18:13:45;;;;;;;24.40;14.20;;;7.30;99.90;;;6.91;100.00;102609.34;4181470;28;20037;-67
2022/01/19 18:15:46;;;;;;;23.85;14.48;;;7.40;99.90;;;6.76;100.00;102598.88;4197638;28;20559;-67
2022/01/19 18:17:52;;;;;;;22.77;15.52;;;7.40;99.90;;;6.85;100.00;102611.47;4182707;28;20033;-67
2022/01/19 18:19:54;;;;;;;28.48;15.73;;;7.50;99.90;;;6.80;100.00;102614.38;4180106;28;20436;-68
2022/01/19 18:21:55;;;;;;;26.23;14.75;;;7.50;99.90;;;6.89;100.00;102623.50;4180026;28;20083;-66
2022/01/19 18:23:57;;;;;;;31.00;16.60;;;7.50;99.90;;;6.80;100.00;102619.63;4181489;28;20021;-66
2022/01/19 18:25:58;;;;;;;33.42;19.08;;;7.50;99.90;;;6.89;100.00;102626.13;4181420;28;20138;-66
2022/01/19 18:27:59;;;;;;;20.05;13.98;;;7.50;99.90;;;6.78;100.00;102631.13;4182853;28;20033;-66
2022/01/19 18:30:00;;;;;;;20.23;11.15;;;7.50;99.90;;;6.79;100.00;102622.31;4181459;28;20033;-66
2022/01/19 18:32:02;;;;;;;16.85;11.75;;;7.50;99.90;;;6.85;100.00;102627.22;4182992;28;20025;-66
2022/01/19 18:34:06;;;;;;;21.92;12.27;;;7.50;99.90;;;6.97;100.00;102627.38;4181383;28;20033;-67
2022/01/19 18:36:07;;;;;;;;;;;7.50;99.90;;;6.94;100.00;102631.94;4214379;28;20078;-67
2022/01/19 18:38:09;;;;;;;20.08;11.30;;;7.50;99.90;;;6.92;100.00;102634.66;4182857;28;20003;-67
2022/01/19 18:40:14;;;;;;;18.02;12.02;;;7.60;99.90;;;6.92;100.00;102631.19;4182712;28;20033;-67
2022/01/19 18:42:15;;;;;;;25.05;15.10;;;7.60;99.90;;;6.99;100.00;102629.94;4181715;28;20104;-67
2022/01/19 18:44:17;;;;;;;23.83;14.70;;;7.60;99.90;;;7.03;100.00;102626.19;4181468;28;20065;-66
2022/01/19 18:46:17;;;;;;;23.98;13.45;;;7.60;99.90;;;6.97;100.00;102630.00;4181190;28;20029;-66
2022/01/19 18:48:19;;;;;;;22.10;14.65;;;7.60;99.90;;;6.90;100.00;102615.53;4182657;28;20097;-66
2022/01/19 18:50:24;;;;;;;21.40;12.68;;;7.60;99.90;;;6.88;100.00;102611.31;4181248;28;20029;-67
2022/01/19 18:52:25;;;;;;;22.85;13.63;;;7.60;99.90;;;6.82;100.00;102616.88;4169575;28;20048;-67
2022/01/19 18:54:26;;;;;;;18.50;12.90;;;7.50;99.90;;;6.92;100.00;102639.06;4181407;28;20025;-66
2022/01/19 18:56:27;;;;;;;20.48;12.73;;;7.50;99.90;;;6.91;100.00;102614.59;4182196;28;20106;-67
2022/01/19 18:58:28;;;;;;;18.90;12.15;;;7.50;99.90;;;6.88;100.00;102606.06;4181546;28;20396;-66
2022/01/19 19:00:31;;;;;;;21.25;11.77;;;7.50;99.90;;;6.94;100.00;102613.56;4164654;28;20500;-66
2022/01/19 19:02:32;;;;;;;20.23;12.90;;;7.60;99.90;;;6.83;100.00;102618.59;4184544;28;20028;-67
2022/01/19 19:04:33;;;;;;;25.02;14.02;;;7.50;99.90;;;6.75;100.00;102621.63;4185797;28;20116;-67
2022/01/19 19:06:34;;;;;;;21.30;13.55;;;7.50;99.90;;;6.84;100.00;102620.28;4184084;28;20029;-66
2022/01/19 19:08:35;;;;;;;21.90;11.98;;;7.50;99.90;;;6.89;100.00;102618.25;4185791;28;20032;-66
2022/01/19 19:12:40;;;;;;;20.02;11.88;;;7.50;99.90;;;6.73;100.00;102601.66;4184590;28;20534;-67
2022/01/19 19:14:42;;;;;;;20.85;11.85;;;7.50;99.90;;;6.87;100.00;102607.00;4185325;28;20052;-67
2022/01/19 19:16:42;;;;;;;18.65;11.90;;;7.50;99.90;;;6.85;100.00;102603.59;4167386;28;20029;-67
2022/01/19 19:18:44;;;;;;;19.35;11.80;;;7.50;99.90;;;6.81;100.00;102604.72;4185486;28;20091;-67
2022/01/19 19:20:45;;;;;;;23.23;13.45;;;7.50;99.90;;;6.78;100.00;102618.00;4185588;28;20029;-67
2022/01/19 19:22:47;;;;;;;23.27;13.07;;;7.50;99.90;;;6.77;100.00;102614.53;4179189;28;20026;-66
2022/01/19 19:24:49;;;;;;;24.67;13.75;;;7.50;99.90;;;6.95;100.00;102615.28;4184041;28;20037;-66
2022/01/19 19:26:52;;;;;;;16.52;11.15;;;7.50;99.90;;;6.83;100.00;102614.19;4183723;28;20037;-66
2022/01/19 19:28:53;;;;;;;20.08;12.98;;;7.50;99.90;;;6.74;100.00;102612.09;4184133;28;20035;-66
2022/01/19 19:30:55;;;;;;;21.40;11.88;;;7.50;99.90;;;6.72;100.00;102621.78;4177333;28;20532;-66
2022/01/19 19:32:56;;;;;;;20.13;11.98;;;7.50;99.90;;;6.71;100.00;102625.38;4217035;28;20036;-67
2022/01/19 19:34:56;;;;;;;22.73;12.98;;;7.50;99.90;;;6.81;100.00;102625.72;4185330;28;20036;-67
2022/01/19 19:36:58;;;;;;;21.88;12.63;;;7.50;99.90;;;6.72;100.00;102608.69;4183701;28;20047;-66
2022/01/19 19:38:59;;;;;;;23.60;12.73;;;7.50;99.90;;;6.75;100.00;102605.06;4184113;28;20203;-67
2022/01/19 19:41:02;;;;;;;21.85;12.85;;;7.50;99.90;;;6.72;100.00;102606.06;4184894;28;20063;-66
2022/01/19 19:43:03;;;;;;;22.60;15.13;;;7.50;99.90;;;6.68;100.00;102604.56;4184140;28;20046;-66
2022/01/19 19:45:07;;;;;;;23.38;13.38;;;7.50;99.90;;;6.80;100.00;102613.53;4183898;28;20033;-66
2022/01/19 19:47:08;;;;;;;22.63;12.75;;;7.50;99.90;;;6.80;100.00;102618.75;4184703;28;20036;-66
2022/01/19 19:49:10;;;;;;;17.25;12.65;;;7.50;99.90;;;6.81;100.00;102620.47;4183804;28;20051;-67
2022/01/19 19:51:11;;;;;;;20.48;13.32;;;7.50;99.90;;;6.93;100.00;102619.78;4184939;28;20036;-67
2022/01/19 19:53:13;;;;;;;21.10;13.35;;;7.50;99.90;;;6.93;100.00;102622.41;4185135;28;20663;-67
2022/01/19 19:55:15;;;;;;;26.40;14.43;;;7.50;99.90;;;7.02;100.00;102622.69;4167131;28;20026;-67
2022/01/19 19:57:16;;;;;;;22.50;13.77;;;7.50;99.90;;;6.95;100.00;102620.53;4183766;28;20037;-67
2022/01/19 19:59:17;;;;;;;23.33;13.13;;;7.60;99.90;;;6.90;100.00;102612.09;4183735;28;20047;-67
2022/01/19 20:01:18;;;;;;;17.90;11.85;;;7.60;99.90;;;6.82;100.00;102609.03;4183520;28;20025;-67
2022/01/19 20:03:19;;;;;;;22.85;14.48;;;7.60;99.90;;;6.81;100.00;102613.41;4200041;28;20648;-67
2022/01/19 20:05:20;;;;;;;23.20;13.82;;;7.60;99.90;;;6.79;100.00;102601.31;4126701;28;20102;-67
2022/01/19 20:07:21;;;;;;;20.80;13.43;;;7.60;99.90;;;6.86;100.00;102607.94;4178871;28;20120;-66
2022/01/19 20:09:22;;;;;;;28.35;15.73;;;7.60;99.90;;;6.90;100.00;102598.97;4167073;28;20033;-67
2022/01/19 20:11:25;;;;;;;23.15;13.45;;;7.60;99.90;;;7.00;100.00;102602.72;4200102;28;20082;-67
2022/01/19 20:13:26;;;;;;;30.05;17.10;;;7.60;99.90;;;6.88;100.00;102611.31;4183511;28;20040;-67
2022/01/19 20:15:27;;;;;;;22.00;12.60;;;7.60;99.90;;;6.91;100.00;102611.13;4183228;28;20037;-66
2022/01/19 20:17:28;;;;;;;23.20;13.75;;;7.60;99.90;;;6.87;100.00;102605.19;4183173;28;20036;-67
2022/01/19 20:19:31;;;;;;;24.05;14.80;;;7.60;99.90;;;6.92;100.00;102610.22;4183347;28;20162;-66
2022/01/19 20:21:32;;;;;;;24.95;12.68;;;7.60;99.90;;;6.90;100.00;102612.09;4166903;28;20049;-66
2022/01/19 20:23:33;;;;;;;22.45;12.60;;;7.60;99.90;;;6.92;100.00;102615.44;4184624;28;20056;-66
2022/01/19 20:25:34;;;;;;;23.15;12.88;;;7.60;99.90;;;7.01;100.00;102614.94;4183874;28;20029;-66
2022/01/19 20:27:35;;;;;;;18.95;12.65;;;7.60;99.90;;;6.91;100.00;102613.75;4184389;28;20107;-66
2022/01/19 20:29:37;;;;;;;23.48;13.50;;;7.60;99.90;;;6.95;100.00;102608.25;4184552;28;20033;-67
2022/01/19 20:31:40;;;;;;;19.35;13.43;;;7.60;99.90;;;6.98;100.00;102610.72;4183390;28;20111;-67
2022/01/19 20:33:43;;;;;;;24.98;14.13;;;7.50;99.90;;;6.92;100.00;102624.19;4183231;28;20033;-67
2022/01/19 20:35:44;;;;;;;23.13;12.40;;;7.50;99.90;;;6.89;100.00;102619.09;4183111;28;20115;-67
2022/01/19 20:37:45;;;;;;;21.13;12.23;;;7.50;99.90;;;6.93;100.00;102611.91;4183139;28;20032;-67
2022/01/19 20:39:46;;;;;;;17.63;11.85;;;7.50;99.90;;;6.90;100.00;102622.56;4184263;28;20031;-67
2022/01/19 20:41:47;;;;;;;19.85;13.20;;;7.40;99.90;;;6.96;100.00;102619.59;4183288;28;20025;-67
2022/01/19 20:43:48;;;;;;;21.13;12.13;;;7.40;99.90;;;6.93;100.00;102625.03;4183275;28;20024;-67
2022/01/19 20:45:49;;;;;;;22.85;13.70;;;7.40;99.90;;;6.80;100.00;102635.34;4182844;28;20037;-67
2022/01/19 20:47:50;;;;;;;26.08;13.02;;;7.30;99.90;;;6.67;100.00;102629.09;4182711;28;20602;-67
2022/01/19 20:49:51;;;;;;;18.40;12.13;;;7.30;99.90;;;6.57;100.00;102622.69;4175801;28;20048;-67
2022/01/19 20:51:52;;;;;;;16.90;11.48;;;7.20;99.90;;;6.59;100.00;102626.91;4180496;28;20071;-66
2022/01/19 20:53:53;;;;;;;20.52;12.68;;;7.20;99.90;;;6.71;100.00;102630.63;4183012;28;20520;-66
2022/01/19 20:55:54;;;;;;;19.48;12.60;;;7.10;99.90;;;6.70;100.00;102628.91;4183939;28;20033;-67
2022/01/19 20:57:55;;;;;;;21.33;13.25;;;7.10;99.90;;;6.66;100.00;102630.00;4182325;28;20570;-66
2022/01/19 20:59:56;;;;;;;18.50;12.48;;;7.10;99.90;;;6.53;100.00;102623.75;4182827;28;20033;-67
2022/01/19 21:01:57;;;;;;;19.42;12.63;;;7.00;99.90;;;6.47;100.00;102630.19;4182779;28;20441;-67
2022/01/19 21:03:58;;;;;;;18.48;12.18;;;7.00;99.90;;;6.53;100.00;102622.00;4182819;28;20694;-66
2022/01/19 21:05:59;;;;;;;21.48;13.60;;;7.00;99.90;;;6.45;100.00;102626.78;4182807;28;20050;-67
2022/01/19 21:08:00;;;;;;;21.20;14.35;;;7.00;99.90;;;6.71;100.00;102625.38;4182600;28;20080;-66
2022/01/19 21:10:02;;;;;;;19.33;12.85;;;7.00;99.90;;;6.78;100.00;102625.88;4182541;28;20033;-67
2022/01/19 21:12:05;;;;;;;19.77;13.40;;;7.10;99.90;;;6.64;100.00;102629.25;4183600;28;20036;-65
2022/01/19 21:14:06;;;;;;;22.15;13.90;;;7.10;99.90;;;6.57;100.00;102623.50;4182981;28;20029;-66
2022/01/19 21:16:07;;;;;;;19.25;13.75;;;7.10;99.90;;;6.58;100.00;102622.56;4182414;28;20037;-66
2022/01/19 21:18:09;;;;;;;27.48;16.13;;;7.20;99.90;;;6.66;100.00;102625.59;4181964;28;20021;-66
2022/01/19 21:20:15;;;;;;;26.40;14.65;;;7.20;99.90;;;6.78;100.00;102618.00;4211142;28;20029;-66
2022/01/19 21:22:18;;;;;;;21.42;14.52;;;7.20;99.90;;;6.69;100.00;102633.31;4176735;28;20025;-66
2022/01/19 21:24:19;;;;;;;27.83;17.00;;;7.20;99.90;;;6.60;100.00;102633.00;4182048;28;20115;-66
2022/01/19 21:26:19;;;;;;;25.48;17.83;;;7.10;99.90;;;6.50;100.00;102639.66;4183585;28;20067;-66
2022/01/19 21:28:22;;;;;;;32.63;20.45;;;7.20;99.90;;;6.34;100.00;102625.69;4183639;28;20064;-65
2022/01/19 21:30:23;;;;;;;26.63;18.67;;;7.10;99.90;;;6.39;100.00;102616.63;4182372;28;20056;-66
2022/01/19 21:32:25;;;;;;;28.38;17.75;;;7.10;99.90;;;6.52;100.00;102630.78;4182218;28;20032;-66
2022/01/19 21:34:26;;;;;;;26.38;18.05;;;7.10;99.90;;;6.60;100.00;102633.81;4165876;28;20022;-66
2022/01/19 21:36:27;;;;;;;28.65;18.45;;;7.10;99.90;;;6.72;100.00;102637.53;4183614;28;20071;-66
2022/01/19 21:38:28;;;;;;;31.58;18.52;;;7.20;99.90;;;6.71;100.00;102632.38;4183303;28;20052;-66
2022/01/19 21:40:31;;;;;;;32.88;19.63;;;7.20;99.90;;;6.62;100.00;102634.59;4182179;28;20028;-66
2022/01/19 21:42:32;;;;;;;27.55;17.98;;;7.30;99.90;;;6.57;100.00;102633.97;4190315;28;20020;-68
2022/01/19 21:44:33;;;;;;;23.17;16.38;;;7.20;99.90;;;6.62;100.00;102647.72;4182390;28;20033;-68
2022/01/19 21:46:34;;;;;;;27.58;18.20;;;7.30;99.90;;;6.64;100.00;102645.84;4183319;28;20071;-68
2022/01/19 21:48:35;;;;;;;29.02;19.65;;;7.30;99.90;;;6.74;100.00;102645.34;4183008;28;20029;-67
2022/01/19 21:50:36;;;;;;;27.45;18.55;;;7.30;99.90;;;6.65;100.00;102644.91;4183228;28;20017;-67
2022/01/19 21:52:37;;;;;;;25.27;15.95;;;7.30;99.90;;;6.62;100.00;102646.84;4182400;28;20114;-67
2022/01/19 21:54:40;;;;;;;26.10;17.23;;;7.30;99.90;;;6.65;100.00;102651.94;4182235;28;20103;-67
2022/01/19 21:56:41;;;;;;;26.10;17.10;;;7.20;99.90;;;6.72;100.00;102652.44;4198491;28;20079;-67
2022/01/19 21:58:46;;;;;;;26.70;18.52;;;7.30;99.90;;;6.62;100.00;102647.72;4181798;28;20021;-67
2022/01/19 22:00:47;;;;;;;27.20;17.67;;;7.20;99.90;;;6.82;100.00;102651.84;4181779;28;20029;-67
2022/01/19 22:02:49;;;;;;;26.20;16.80;;;7.20;99.90;;;6.68;100.00;102644.75;4182892;28;20025;-67
2022/01/19 22:04:49;;;;;;;24.42;15.80;;;7.20;99.90;;;6.68;100.00;102634.25;4182010;28;20039;-67
2022/01/19 22:06:50;;;;;;;27.58;18.38;;;7.10;99.90;;;6.62;100.00;102631.13;4183010;28;20029;-67
2022/01/19 22:08:53;;;;;;;27.50;18.60;;;7.00;99.90;;;6.38;100.00;102654.28;4183062;28;20662;-67
2022/01/19 22:10:55;;;;;;;27.88;18.08;;;6.90;99.90;;;6.50;100.00;102656.25;4181943;28;20040;-67
2022/01/19 22:12:55;;;;;;;24.30;17.00;;;6.90;99.90;;;6.40;100.00;102665.50;4181892;28;20051;-67
2022/01/19 22:14:56;;;;;;;24.77;16.63;;;6.90;99.90;;;6.53;100.00;102669.19;4181705;28;20126;-67
2022/01/19 22:16:57;;;;;;;24.88;16.75;;;6.80;99.90;;;6.46;100.00;102669.59;4181582;28;20121;-67
2022/01/19 22:18:58;;;;;;;23.50;15.82;;;6.80;99.90;;;6.32;100.00;102665.09;4181545;28;20460;-67
2022/01/19 22:20:59;;;;;;;24.15;15.52;;;6.80;99.90;;;6.33;100.00;102666.75;4181765;28;20444;-66
2022/01/19 22:23:00;;;;;;;23.65;15.10;;;6.80;99.90;;;6.42;100.00;102655.78;4204633;28;20091;-66
2022/01/19 22:25:03;;;;;;;23.40;14.25;;;6.80;99.90;;;6.61;100.00;102669.59;4170004;28;20040;-67
2022/01/19 22:27:06;;;;;;;23.55;14.65;;;6.90;99.90;;;6.59;100.00;102673.25;4181905;28;20036;-67
2022/01/19 22:29:08;;;;;;;25.75;15.35;;;7.00;99.90;;;6.61;100.00;102672.22;4183127;28;20029;-67
2022/01/19 22:31:09;;;;;;;26.60;14.98;;;7.10;99.90;;;6.67;100.00;102669.28;4181524;28;20471;-68
2022/01/19 22:33:10;;;;;;;23.25;14.77;;;7.20;99.90;;;6.52;100.00;102664.84;4182744;28;20048;-66
2022/01/19 22:35:11;;;;;;;27.10;16.38;;;7.20;99.90;;;6.67;100.00;102664.03;4181604;28;20025;-66
2022/01/19 22:37:12;;;;;;;22.10;14.68;;;7.20;99.90;;;6.83;100.00;102656.16;4166978;28;20025;-66
2022/01/19 22:39:15;;;;;;;22.80;14.73;;;7.30;99.90;;;6.80;100.00;102665.97;4201375;28;20027;-65
2022/01/19 22:41:16;;;;;;;27.38;14.48;;;7.40;99.90;;;7.06;100.00;102678.47;4186128;28;20039;-66
2022/01/19 22:43:17;;;;;;;27.67;14.70;;;7.40;99.90;;;7.16;100.00;102679.66;4186276;28;20025;-67
2022/01/19 22:45:18;;;;;;;23.23;15.40;;;7.50;99.90;;;7.04;100.00;102660.22;4186179;28;20041;-66
2022/01/19 22:47:19;;;;;;;19.77;13.70;;;7.60;99.90;;;7.09;100.00;102671.28;4185864;28;20028;-66
2022/01/19 22:49:21;;;;;;;21.67;14.60;;;7.60;99.90;;;7.03;100.00;102678.66;4185341;28;20465;-67
2022/01/19 22:51:22;;;;;;;26.20;14.77;;;7.60;99.90;;;6.96;100.00;102677.31;4186533;28;20056;-66
2022/01/19 22:53:23;;;;;;;24.15;14.82;;;7.60;99.90;;;7.01;100.00;102681.38;4185370;28;20099;-66